sensor_id;sensor_type;location;lat;lon;timestamp;P1;durP1;ratioP1;P2;durP2;ratioP2
36555;SDS011;40859;50.560;7.268;2023-04-09T02:24:35;13.18;;;5.28;;
36555;SDS011;40859;50.560;7.268;2023-04-09T02:27:01;9.57;;;5.10;;
36555;SDS011;40859;50.560;7.268;2023-04-09T02:29:28;8.73;;;4.40;;
36555;SDS011;40859;50.560;7.268;2023-04-09T02:31:54;9.27;;;5.05;;
36555;SDS011;40859;50.560;7.268;2023-04-09T02:34:20;9.15;;;5.35;;
36555;SDS011;40859;50.560;7.268;2023-04-09T02:36:46;7.18;;;4.75;;
36555;SDS011;40859;50.560;7.268;2023-04-09T02:39:12;9.05;;;4.93;;
36555;SDS011;40859;50.560;7.268;2023-04-09T02:41:38;12.13;;;4.80;;
36555;SDS011;40859;50.560;7.268;2023-04-09T02:44:04;8.77;;;3.75;;
36555;SDS011;40859;50.560;7.268;2023-04-09T02:46:30;5.90;;;3.78;;
36555;SDS011;40859;50.560;7.268;2023-04-09T02:48:55;8.77;;;4.18;;
36555;SDS011;40859;50.560;7.268;2023-04-09T02:51:21;8.68;;;5.05;;
36555;SDS011;40859;50.560;7.268;2023-04-09T02:53:47;13.15;;;5.80;;
36555;SDS011;40859;50.560;7.268;2023-04-09T02:56:13;8.57;;;5.05;;
36555;SDS011;40859;50.560;7.268;2023-04-09T02:58:39;7.57;;;5.00;;
36555;SDS011;40859;50.560;7.268;2023-04-09T03:01:04;8.40;;;5.28;;
36555;SDS011;40859;50.560;7.268;2023-04-09T03:03:30;10.10;;;6.12;;
36555;SDS011;40859;50.560;7.268;2023-04-09T03:05:56;7.82;;;4.62;;
36555;SDS011;40859;50.560;7.268;2023-04-09T03:08:22;11.75;;;6.00;;
36555;SDS011;40859;50.560;7.268;2023-04-09T03:10:48;7.97;;;4.53;;
36555;SDS011;40859;50.560;7.268;2023-04-09T03:13:14;8.10;;;5.18;;
36555;SDS011;40859;50.560;7.268;2023-04-09T03:15:40;7.43;;;4.60;;
36555;SDS011;40859;50.560;7.268;2023-04-09T03:18:06;10.80;;;5.60;;
36555;SDS011;40859;50.560;7.268;2023-04-09T03:20:32;8.27;;;4.00;;
36555;SDS011;40859;50.560;7.268;2023-04-09T03:22:57;7.47;;;4.10;;
36555;SDS011;40859;50.560;7.268;2023-04-09T03:25:23;9.48;;;4.90;;
36555;SDS011;40859;50.560;7.268;2023-04-09T03:27:49;10.38;;;4.28;;
36555;SDS011;40859;50.560;7.268;2023-04-09T03:30:15;9.82;;;4.20;;
36555;SDS011;40859;50.560;7.268;2023-04-09T03:32:41;9.52;;;4.68;;
36555;SDS011;40859;50.560;7.268;2023-04-09T03:35:07;8.98;;;4.00;;
36555;SDS011;40859;50.560;7.268;2023-04-09T03:37:32;4.82;;;3.72;;
36555;SDS011;40859;50.560;7.268;2023-04-09T03:39:59;6.95;;;4.03;;
36555;SDS011;40859;50.560;7.268;2023-04-09T03:42:24;6.18;;;4.10;;
36555;SDS011;40859;50.560;7.268;2023-04-09T03:44:52;6.03;;;3.50;;
36555;SDS011;40859;50.560;7.268;2023-04-09T03:47:18;9.02;;;3.87;;
36555;SDS011;40859;50.560;7.268;2023-04-09T03:49:45;13.35;;;5.53;;
36555;SDS011;40859;50.560;7.268;2023-04-09T03:52:10;8.63;;;3.85;;
36555;SDS011;40859;50.560;7.268;2023-04-09T03:54:36;6.20;;;3.42;;
36555;SDS011;40859;50.560;7.268;2023-04-09T03:57:02;5.57;;;4.10;;
36555;SDS011;40859;50.560;7.268;2023-04-09T03:59:28;8.00;;;3.67;;
36555;SDS011;40859;50.560;7.268;2023-04-09T04:01:54;6.18;;;4.22;;
36555;SDS011;40859;50.560;7.268;2023-04-09T04:04:20;6.15;;;3.58;;
36555;SDS011;40859;50.560;7.268;2023-04-09T04:06:46;10.90;;;4.18;;
36555;SDS011;40859;50.560;7.268;2023-04-09T04:09:12;5.20;;;3.67;;
36555;SDS011;40859;50.560;7.268;2023-04-09T04:11:38;11.52;;;4.22;;
36555;SDS011;40859;50.560;7.268;2023-04-09T04:14:04;7.45;;;3.87;;
36555;SDS011;40859;50.560;7.268;2023-04-09T04:16:29;8.65;;;4.10;;
36555;SDS011;40859;50.560;7.268;2023-04-09T04:18:56;8.10;;;4.50;;
36555;SDS011;40859;50.560;7.268;2023-04-09T04:21:22;5.75;;;3.95;;
36555;SDS011;40859;50.560;7.268;2023-04-09T04:23:48;7.62;;;4.75;;
36555;SDS011;40859;50.560;7.268;2023-04-09T04:26:14;6.65;;;4.07;;
36555;SDS011;40859;50.560;7.268;2023-04-09T04:28:40;7.22;;;4.20;;
36555;SDS011;40859;50.560;7.268;2023-04-09T04:31:06;6.78;;;4.30;;
36555;SDS011;40859;50.560;7.268;2023-04-09T04:33:34;5.25;;;3.80;;
36555;SDS011;40859;50.560;7.268;2023-04-09T04:36:10;9.90;;;4.60;;
36555;SDS011;40859;50.560;7.268;2023-04-09T04:38:37;14.25;;;4.72;;
36555;SDS011;40859;50.560;7.268;2023-04-09T04:41:04;5.53;;;3.20;;
36555;SDS011;40859;50.560;7.268;2023-04-09T04:43:30;4.90;;;3.67;;
36555;SDS011;40859;50.560;7.268;2023-04-09T04:45:56;5.87;;;3.22;;
36555;SDS011;40859;50.560;7.268;2023-04-09T04:48:23;9.43;;;4.28;;
36555;SDS011;40859;50.560;7.268;2023-04-09T04:50:55;20.48;;;4.50;;
36555;SDS011;40859;50.560;7.268;2023-04-09T04:53:22;12.40;;;3.75;;
36555;SDS011;40859;50.560;7.268;2023-04-09T04:55:48;9.32;;;4.20;;
36555;SDS011;40859;50.560;7.268;2023-04-09T04:58:14;15.38;;;4.72;;
36555;SDS011;40859;50.560;7.268;2023-04-09T05:00:40;6.45;;;3.72;;
36555;SDS011;40859;50.560;7.268;2023-04-09T05:03:06;5.87;;;3.87;;
36555;SDS011;40859;50.560;7.268;2023-04-09T05:05:32;5.47;;;3.03;;
36555;SDS011;40859;50.560;7.268;2023-04-09T05:07:58;5.62;;;3.83;;
36555;SDS011;40859;50.560;7.268;2023-04-09T05:10:24;10.68;;;3.87;;
36555;SDS011;40859;50.560;7.268;2023-04-09T05:12:50;4.90;;;3.62;;
36555;SDS011;40859;50.560;7.268;2023-04-09T05:15:16;7.40;;;4.50;;
36555;SDS011;40859;50.560;7.268;2023-04-09T05:17:42;5.40;;;3.50;;
36555;SDS011;40859;50.560;7.268;2023-04-09T05:20:09;4.85;;;3.60;;
36555;SDS011;40859;50.560;7.268;2023-04-09T05:22:36;4.20;;;2.92;;
36555;SDS011;40859;50.560;7.268;2023-04-09T05:25:02;5.35;;;3.25;;
36555;SDS011;40859;50.560;7.268;2023-04-09T05:27:28;6.55;;;3.70;;
36555;SDS011;40859;50.560;7.268;2023-04-09T05:29:54;6.15;;;3.37;;
36555;SDS011;40859;50.560;7.268;2023-04-09T05:32:20;7.15;;;3.22;;
36555;SDS011;40859;50.560;7.268;2023-04-09T05:34:47;6.28;;;3.17;;
36555;SDS011;40859;50.560;7.268;2023-04-09T05:37:13;7.60;;;3.60;;
36555;SDS011;40859;50.560;7.268;2023-04-09T05:39:38;4.80;;;3.20;;
36555;SDS011;40859;50.560;7.268;2023-04-09T05:42:04;6.78;;;3.20;;
36555;SDS011;40859;50.560;7.268;2023-04-09T05:44:30;14.90;;;3.35;;
36555;SDS011;40859;50.560;7.268;2023-04-09T05:46:56;6.18;;;3.53;;
36555;SDS011;40859;50.560;7.268;2023-04-09T05:49:22;7.82;;;2.92;;
36555;SDS011;40859;50.560;7.268;2023-04-09T05:51:50;10.23;;;3.30;;
36555;SDS011;40859;50.560;7.268;2023-04-09T05:54:16;15.45;;;3.87;;
36555;SDS011;40859;50.560;7.268;2023-04-09T05:56:41;15.23;;;3.90;;
36555;SDS011;40859;50.560;7.268;2023-04-09T05:59:07;9.57;;;3.78;;
36555;SDS011;40859;50.560;7.268;2023-04-09T06:01:33;10.02;;;3.40;;
36555;SDS011;40859;50.560;7.268;2023-04-09T06:03:59;6.28;;;3.80;;
36555;SDS011;40859;50.560;7.268;2023-04-09T06:06:25;3.92;;;2.58;;
36555;SDS011;40859;50.560;7.268;2023-04-09T06:08:51;4.07;;;2.72;;
36555;SDS011;40859;50.560;7.268;2023-04-09T06:11:17;7.57;;;3.80;;
36555;SDS011;40859;50.560;7.268;2023-04-09T06:13:43;8.88;;;3.10;;
36555;SDS011;40859;50.560;7.268;2023-04-09T06:16:08;6.05;;;2.78;;
36555;SDS011;40859;50.560;7.268;2023-04-09T06:18:38;8.02;;;2.92;;
36555;SDS011;40859;50.560;7.268;2023-04-09T06:21:04;9.13;;;3.10;;
36555;SDS011;40859;50.560;7.268;2023-04-09T06:23:31;12.35;;;3.90;;
36555;SDS011;40859;50.560;7.268;2023-04-09T06:25:57;11.07;;;3.85;;
36555;SDS011;40859;50.560;7.268;2023-04-09T06:28:23;7.03;;;2.83;;
36555;SDS011;40859;50.560;7.268;2023-04-09T06:30:49;8.30;;;2.75;;
36555;SDS011;40859;50.560;7.268;2023-04-09T06:33:16;5.85;;;2.97;;
36555;SDS011;40859;50.560;7.268;2023-04-09T06:35:42;12.25;;;3.17;;
36555;SDS011;40859;50.560;7.268;2023-04-09T06:38:08;5.70;;;2.30;;
36555;SDS011;40859;50.560;7.268;2023-04-09T06:40:36;11.80;;;3.12;;
36555;SDS011;40859;50.560;7.268;2023-04-09T06:43:03;11.55;;;2.92;;
36555;SDS011;40859;50.560;7.268;2023-04-09T06:45:29;10.07;;;2.85;;
36555;SDS011;40859;50.560;7.268;2023-04-09T06:47:58;12.02;;;3.28;;
36555;SDS011;40859;50.560;7.268;2023-04-09T06:50:25;9.05;;;2.62;;
36555;SDS011;40859;50.560;7.268;2023-04-09T06:52:51;10.73;;;3.55;;
36555;SDS011;40859;50.560;7.268;2023-04-09T06:55:17;10.18;;;3.22;;
36555;SDS011;40859;50.560;7.268;2023-04-09T06:57:43;6.12;;;3.58;;
36555;SDS011;40859;50.560;7.268;2023-04-09T07:00:09;12.37;;;3.55;;
36555;SDS011;40859;50.560;7.268;2023-04-09T07:02:36;7.60;;;3.67;;
36555;SDS011;40859;50.560;7.268;2023-04-09T07:05:02;8.90;;;3.20;;
36555;SDS011;40859;50.560;7.268;2023-04-09T07:07:29;12.65;;;3.40;;
36555;SDS011;40859;50.560;7.268;2023-04-09T07:09:55;10.35;;;3.42;;
36555;SDS011;40859;50.560;7.268;2023-04-09T07:12:31;13.20;;;3.65;;
36555;SDS011;40859;50.560;7.268;2023-04-09T07:15:01;15.45;;;3.45;;
36555;SDS011;40859;50.560;7.268;2023-04-09T07:17:32;9.45;;;3.35;;
36555;SDS011;40859;50.560;7.268;2023-04-09T07:19:58;11.25;;;2.80;;
36555;SDS011;40859;50.560;7.268;2023-04-09T07:22:25;7.00;;;2.95;;
36555;SDS011;40859;50.560;7.268;2023-04-09T07:24:52;8.88;;;3.20;;
36555;SDS011;40859;50.560;7.268;2023-04-09T07:27:28;10.05;;;3.05;;
36555;SDS011;40859;50.560;7.268;2023-04-09T07:29:54;18.50;;;3.42;;
36555;SDS011;40859;50.560;7.268;2023-04-09T07:32:22;8.30;;;2.78;;
36555;SDS011;40859;50.560;7.268;2023-04-09T07:34:51;6.45;;;3.03;;
36555;SDS011;40859;50.560;7.268;2023-04-09T07:37:18;10.43;;;3.67;;
36555;SDS011;40859;50.560;7.268;2023-04-09T07:39:45;10.75;;;3.55;;
36555;SDS011;40859;50.560;7.268;2023-04-09T07:42:11;7.00;;;2.92;;
36555;SDS011;40859;50.560;7.268;2023-04-09T07:44:37;5.12;;;2.90;;
36555;SDS011;40859;50.560;7.268;2023-04-09T07:47:04;16.90;;;3.65;;
36555;SDS011;40859;50.560;7.268;2023-04-09T07:49:31;15.40;;;3.60;;
36555;SDS011;40859;50.560;7.268;2023-04-09T07:51:59;9.68;;;3.58;;
36555;SDS011;40859;50.560;7.268;2023-04-09T07:54:25;22.20;;;4.12;;
36555;SDS011;40859;50.560;7.268;2023-04-09T07:56:52;10.18;;;3.62;;
36555;SDS011;40859;50.560;7.268;2023-04-09T07:59:18;23.08;;;5.05;;
36555;SDS011;40859;50.560;7.268;2023-04-09T08:01:44;22.05;;;3.78;;
36555;SDS011;40859;50.560;7.268;2023-04-09T08:04:10;21.92;;;4.32;;
36555;SDS011;40859;50.560;7.268;2023-04-09T08:06:37;7.45;;;3.55;;
36555;SDS011;40859;50.560;7.268;2023-04-09T08:09:03;7.30;;;3.15;;
36555;SDS011;40859;50.560;7.268;2023-04-09T08:11:29;13.45;;;4.57;;
36555;SDS011;40859;50.560;7.268;2023-04-09T08:13:55;14.63;;;3.87;;
36555;SDS011;40859;50.560;7.268;2023-04-09T08:16:21;8.05;;;3.12;;
36555;SDS011;40859;50.560;7.268;2023-04-09T08:18:51;9.70;;;3.28;;
36555;SDS011;40859;50.560;7.268;2023-04-09T08:21:18;8.73;;;3.65;;
36555;SDS011;40859;50.560;7.268;2023-04-09T08:23:44;18.20;;;4.72;;
36555;SDS011;40859;50.560;7.268;2023-04-09T08:26:10;16.55;;;4.20;;
36555;SDS011;40859;50.560;7.268;2023-04-09T08:28:35;14.77;;;4.78;;
36555;SDS011;40859;50.560;7.268;2023-04-09T08:31:01;10.98;;;3.97;;
36555;SDS011;40859;50.560;7.268;2023-04-09T08:33:27;13.57;;;4.20;;
36555;SDS011;40859;50.560;7.268;2023-04-09T08:35:53;7.93;;;4.25;;
36555;SDS011;40859;50.560;7.268;2023-04-09T08:38:19;24.40;;;6.62;;
36555;SDS011;40859;50.560;7.268;2023-04-09T08:40:45;12.05;;;3.92;;
36555;SDS011;40859;50.560;7.268;2023-04-09T08:43:13;11.20;;;4.55;;
36555;SDS011;40859;50.560;7.268;2023-04-09T08:45:40;14.38;;;4.70;;
36555;SDS011;40859;50.560;7.268;2023-04-09T08:48:08;8.00;;;4.55;;
36555;SDS011;40859;50.560;7.268;2023-04-09T08:50:35;11.90;;;4.32;;
36555;SDS011;40859;50.560;7.268;2023-04-09T08:53:01;14.98;;;4.72;;
36555;SDS011;40859;50.560;7.268;2023-04-09T08:55:29;13.05;;;4.90;;
36555;SDS011;40859;50.560;7.268;2023-04-09T08:57:55;11.30;;;5.05;;
36555;SDS011;40859;50.560;7.268;2023-04-09T09:00:22;7.57;;;3.70;;
36555;SDS011;40859;50.560;7.268;2023-04-09T09:03:04;13.10;;;4.05;;
36555;SDS011;40859;50.560;7.268;2023-04-09T09:05:35;12.10;;;4.43;;
36555;SDS011;40859;50.560;7.268;2023-04-09T09:08:02;14.40;;;4.57;;
36555;SDS011;40859;50.560;7.268;2023-04-09T09:10:38;8.38;;;4.12;;
36555;SDS011;40859;50.560;7.268;2023-04-09T09:13:18;6.60;;;3.72;;
36555;SDS011;40859;50.560;7.268;2023-04-09T09:15:49;10.02;;;4.35;;
36555;SDS011;40859;50.560;7.268;2023-04-09T09:18:19;7.45;;;3.83;;
36555;SDS011;40859;50.560;7.268;2023-04-09T09:20:46;12.90;;;3.67;;
36555;SDS011;40859;50.560;7.268;2023-04-09T09:23:12;6.62;;;3.85;;
36555;SDS011;40859;50.560;7.268;2023-04-09T09:25:38;7.45;;;3.97;;
36555;SDS011;40859;50.560;7.268;2023-04-09T09:28:07;7.32;;;3.87;;
36555;SDS011;40859;50.560;7.268;2023-04-09T09:30:34;7.40;;;3.33;;
36555;SDS011;40859;50.560;7.268;2023-04-09T09:33:09;7.72;;;4.07;;
36555;SDS011;40859;50.560;7.268;2023-04-09T09:36:36;4.95;;;3.67;;
36555;SDS011;40859;50.560;7.268;2023-04-09T09:39:02;7.03;;;3.90;;
36555;SDS011;40859;50.560;7.268;2023-04-09T09:41:29;8.13;;;3.80;;
36555;SDS011;40859;50.560;7.268;2023-04-09T09:43:55;9.90;;;3.90;;
36555;SDS011;40859;50.560;7.268;2023-04-09T09:46:21;10.82;;;4.25;;
36555;SDS011;40859;50.560;7.268;2023-04-09T09:48:50;4.78;;;3.62;;
36555;SDS011;40859;50.560;7.268;2023-04-09T09:51:16;8.30;;;3.95;;
36555;SDS011;40859;50.560;7.268;2023-04-09T09:53:43;5.53;;;3.15;;
36555;SDS011;40859;50.560;7.268;2023-04-09T09:56:17;5.70;;;4.00;;
36555;SDS011;40859;50.560;7.268;2023-04-09T10:02:05;5.50;;;3.28;;
36555;SDS011;40859;50.560;7.268;2023-04-09T10:04:35;8.68;;;3.67;;
36555;SDS011;40859;50.560;7.268;2023-04-09T10:07:03;13.88;;;3.70;;
36555;SDS011;40859;50.560;7.268;2023-04-09T10:09:33;12.52;;;3.90;;
36555;SDS011;40859;50.560;7.268;2023-04-09T10:12:01;8.85;;;4.95;;
36555;SDS011;40859;50.560;7.268;2023-04-09T10:14:31;6.43;;;3.90;;
36555;SDS011;40859;50.560;7.268;2023-04-09T10:16:59;11.45;;;3.97;;
36555;SDS011;40859;50.560;7.268;2023-04-09T10:19:28;6.75;;;3.10;;
36555;SDS011;40859;50.560;7.268;2023-04-09T10:22:01;9.10;;;3.53;;
36555;SDS011;40859;50.560;7.268;2023-04-09T10:24:37;7.65;;;3.90;;
36555;SDS011;40859;50.560;7.268;2023-04-09T10:27:08;5.82;;;3.92;;
36555;SDS011;40859;50.560;7.268;2023-04-09T10:29:35;8.15;;;2.95;;
36555;SDS011;40859;50.560;7.268;2023-04-09T10:32:11;5.82;;;3.95;;
36555;SDS011;40859;50.560;7.268;2023-04-09T10:34:38;8.55;;;3.60;;
36555;SDS011;40859;50.560;7.268;2023-04-09T10:37:06;6.53;;;4.00;;
36555;SDS011;40859;50.560;7.268;2023-04-09T10:39:39;11.95;;;3.55;;
36555;SDS011;40859;50.560;7.268;2023-04-09T10:42:18;10.25;;;3.90;;
36555;SDS011;40859;50.560;7.268;2023-04-09T10:45:05;13.77;;;3.78;;
36555;SDS011;40859;50.560;7.268;2023-04-09T10:47:36;9.80;;;3.95;;
36555;SDS011;40859;50.560;7.268;2023-04-09T10:50:17;5.40;;;3.47;;
36555;SDS011;40859;50.560;7.268;2023-04-09T10:52:53;8.02;;;4.18;;
36555;SDS011;40859;50.560;7.268;2023-04-09T10:55:37;7.07;;;3.47;;
36555;SDS011;40859;50.560;7.268;2023-04-09T10:58:09;7.18;;;3.42;;
36555;SDS011;40859;50.560;7.268;2023-04-09T11:00:37;9.73;;;3.85;;
36555;SDS011;40859;50.560;7.268;2023-04-09T11:03:18;9.70;;;3.60;;
36555;SDS011;40859;50.560;7.268;2023-04-09T11:06:06;14.23;;;3.80;;
36555;SDS011;40859;50.560;7.268;2023-04-09T11:08:34;4.87;;;3.30;;
36555;SDS011;40859;50.560;7.268;2023-04-09T11:11:02;3.60;;;2.83;;
36555;SDS011;40859;50.560;7.268;2023-04-09T11:13:29;6.80;;;3.47;;
36555;SDS011;40859;50.560;7.268;2023-04-09T11:15:56;9.70;;;3.58;;
36555;SDS011;40859;50.560;7.268;2023-04-09T11:18:26;8.55;;;3.53;;
36555;SDS011;40859;50.560;7.268;2023-04-09T11:20:54;6.85;;;3.85;;
36555;SDS011;40859;50.560;7.268;2023-04-09T11:23:25;6.28;;;2.90;;
36555;SDS011;40859;50.560;7.268;2023-04-09T11:25:52;4.97;;;2.47;;
36555;SDS011;40859;50.560;7.268;2023-04-09T11:28:19;5.65;;;3.25;;
36555;SDS011;40859;50.560;7.268;2023-04-09T11:30:45;8.05;;;3.22;;
36555;SDS011;40859;50.560;7.268;2023-04-09T11:33:11;4.72;;;3.60;;
36555;SDS011;40859;50.560;7.268;2023-04-09T11:35:38;9.82;;;3.12;;
36555;SDS011;40859;50.560;7.268;2023-04-09T11:38:07;6.28;;;3.17;;
36555;SDS011;40859;50.560;7.268;2023-04-09T11:40:34;5.78;;;3.58;;
36555;SDS011;40859;50.560;7.268;2023-04-09T11:43:00;4.28;;;2.90;;
36555;SDS011;40859;50.560;7.268;2023-04-09T11:45:27;11.55;;;3.12;;
36555;SDS011;40859;50.560;7.268;2023-04-09T11:47:55;7.95;;;3.35;;
36555;SDS011;40859;50.560;7.268;2023-04-09T11:50:21;4.82;;;2.95;;
36555;SDS011;40859;50.560;7.268;2023-04-09T11:52:47;6.85;;;3.35;;
36555;SDS011;40859;50.560;7.268;2023-04-09T11:55:23;4.03;;;2.78;;
36555;SDS011;40859;50.560;7.268;2023-04-09T11:57:52;3.55;;;2.90;;
36555;SDS011;40859;50.560;7.268;2023-04-09T12:00:21;8.25;;;3.08;;
36555;SDS011;40859;50.560;7.268;2023-04-09T12:02:49;4.65;;;3.08;;
36555;SDS011;40859;50.560;7.268;2023-04-09T12:05:23;4.78;;;3.08;;
36555;SDS011;40859;50.560;7.268;2023-04-09T12:07:55;6.20;;;2.80;;
36555;SDS011;40859;50.560;7.268;2023-04-09T12:12:53;5.65;;;3.65;;
36555;SDS011;40859;50.560;7.268;2023-04-09T12:15:20;6.05;;;3.05;;
36555;SDS011;40859;50.560;7.268;2023-04-09T12:17:50;7.65;;;2.90;;
36555;SDS011;40859;50.560;7.268;2023-04-09T12:20:29;4.30;;;2.87;;
36555;SDS011;40859;50.560;7.268;2023-04-09T12:23:01;3.92;;;2.67;;
36555;SDS011;40859;50.560;7.268;2023-04-09T12:25:28;4.47;;;2.80;;
36555;SDS011;40859;50.560;7.268;2023-04-09T12:27:55;12.27;;;3.03;;
36555;SDS011;40859;50.560;7.268;2023-04-09T12:30:22;5.30;;;3.03;;
36555;SDS011;40859;50.560;7.268;2023-04-09T12:32:49;5.93;;;2.95;;
36555;SDS011;40859;50.560;7.268;2023-04-09T12:35:16;4.28;;;2.75;;
36555;SDS011;40859;50.560;7.268;2023-04-09T12:37:42;7.62;;;2.58;;
36555;SDS011;40859;50.560;7.268;2023-04-09T12:40:08;4.03;;;3.03;;
36555;SDS011;40859;50.560;7.268;2023-04-09T12:42:37;4.10;;;2.62;;
36555;SDS011;40859;50.560;7.268;2023-04-09T12:45:05;6.05;;;2.62;;
36555;SDS011;40859;50.560;7.268;2023-04-09T12:47:33;3.75;;;2.78;;
36555;SDS011;40859;50.560;7.268;2023-04-09T12:49:58;4.18;;;2.80;;
36555;SDS011;40859;50.560;7.268;2023-04-09T12:52:24;3.20;;;2.30;;
36555;SDS011;40859;50.560;7.268;2023-04-09T12:54:50;4.53;;;2.80;;
36555;SDS011;40859;50.560;7.268;2023-04-09T12:57:16;5.40;;;2.62;;
36555;SDS011;40859;50.560;7.268;2023-04-09T12:59:42;4.12;;;2.78;;
36555;SDS011;40859;50.560;7.268;2023-04-09T13:02:08;6.72;;;2.78;;
36555;SDS011;40859;50.560;7.268;2023-04-09T13:04:35;24.58;;;2.42;;
36555;SDS011;40859;50.560;7.268;2023-04-09T13:07:01;11.80;;;2.67;;
36555;SDS011;40859;50.560;7.268;2023-04-09T13:09:28;14.20;;;3.17;;
36555;SDS011;40859;50.560;7.268;2023-04-09T13:11:58;7.30;;;2.65;;
36555;SDS011;40859;50.560;7.268;2023-04-09T13:14:24;5.93;;;2.83;;
36555;SDS011;40859;50.560;7.268;2023-04-09T13:16:49;13.13;;;3.70;;
36555;SDS011;40859;50.560;7.268;2023-04-09T13:19:16;23.55;;;3.58;;
36555;SDS011;40859;50.560;7.268;2023-04-09T13:21:43;23.25;;;4.03;;
36555;SDS011;40859;50.560;7.268;2023-04-09T13:24:09;14.48;;;3.28;;
36555;SDS011;40859;50.560;7.268;2023-04-09T13:26:35;16.58;;;3.95;;
36555;SDS011;40859;50.560;7.268;2023-04-09T13:29:01;18.08;;;3.03;;
36555;SDS011;40859;50.560;7.268;2023-04-09T13:31:27;27.55;;;4.22;;
36555;SDS011;40859;50.560;7.268;2023-04-09T13:33:53;15.68;;;3.15;;
36555;SDS011;40859;50.560;7.268;2023-04-09T13:36:19;8.70;;;3.33;;
36555;SDS011;40859;50.560;7.268;2023-04-09T13:38:48;16.67;;;3.35;;
36555;SDS011;40859;50.560;7.268;2023-04-09T13:41:14;11.93;;;3.70;;
36555;SDS011;40859;50.560;7.268;2023-04-09T13:43:40;10.82;;;2.95;;
36555;SDS011;40859;50.560;7.268;2023-04-09T13:46:06;17.30;;;3.53;;
36555;SDS011;40859;50.560;7.268;2023-04-09T13:48:31;9.65;;;3.17;;
36555;SDS011;40859;50.560;7.268;2023-04-09T13:50:57;14.40;;;2.70;;
36555;SDS011;40859;50.560;7.268;2023-04-09T13:53:23;13.05;;;3.50;;
36555;SDS011;40859;50.560;7.268;2023-04-09T13:55:49;6.37;;;2.75;;
36555;SDS011;40859;50.560;7.268;2023-04-09T13:58:15;9.57;;;3.17;;
36555;SDS011;40859;50.560;7.268;2023-04-09T14:00:41;15.00;;;2.90;;
36555;SDS011;40859;50.560;7.268;2023-04-09T14:03:07;12.43;;;3.53;;
36555;SDS011;40859;50.560;7.268;2023-04-09T14:05:33;9.30;;;3.33;;
36555;SDS011;40859;50.560;7.268;2023-04-09T14:08:00;21.92;;;3.03;;
36555;SDS011;40859;50.560;7.268;2023-04-09T14:10:25;14.87;;;3.15;;
36555;SDS011;40859;50.560;7.268;2023-04-09T14:12:51;18.10;;;3.25;;
36555;SDS011;40859;50.560;7.268;2023-04-09T14:15:17;11.98;;;3.28;;
36555;SDS011;40859;50.560;7.268;2023-04-09T14:17:43;12.63;;;3.05;;
36555;SDS011;40859;50.560;7.268;2023-04-09T14:20:09;11.93;;;2.35;;
36555;SDS011;40859;50.560;7.268;2023-04-09T14:22:35;12.77;;;2.90;;
36555;SDS011;40859;50.560;7.268;2023-04-09T14:25:01;14.55;;;2.75;;
36555;SDS011;40859;50.560;7.268;2023-04-09T20:32:44;5.43;;;2.50;;
36555;SDS011;40859;50.560;7.268;2023-04-09T20:35:10;7.50;;;2.75;;
36555;SDS011;40859;50.560;7.268;2023-04-09T20:37:37;6.50;;;2.33;;
36555;SDS011;40859;50.560;7.268;2023-04-09T20:40:05;7.97;;;2.33;;
36555;SDS011;40859;50.560;7.268;2023-04-09T20:42:31;4.70;;;2.42;;
36555;SDS011;40859;50.560;7.268;2023-04-09T20:44:57;3.90;;;2.35;;
36555;SDS011;40859;50.560;7.268;2023-04-09T20:47:23;5.20;;;2.42;;
36555;SDS011;40859;50.560;7.268;2023-04-09T20:49:49;5.78;;;2.58;;
36555;SDS011;40859;50.560;7.268;2023-04-09T20:52:17;2.20;;;1.98;;
36555;SDS011;40859;50.560;7.268;2023-04-09T20:54:43;4.28;;;2.65;;
36555;SDS011;40859;50.560;7.268;2023-04-09T20:57:09;4.57;;;2.62;;
36555;SDS011;40859;50.560;7.268;2023-04-09T20:59:35;5.68;;;2.97;;
36555;SDS011;40859;50.560;7.268;2023-04-09T21:02:01;4.30;;;2.70;;
36555;SDS011;40859;50.560;7.268;2023-04-09T21:04:27;8.00;;;3.80;;
36555;SDS011;40859;50.560;7.268;2023-04-09T21:06:53;6.25;;;2.72;;
36555;SDS011;40859;50.560;7.268;2023-04-09T21:09:19;6.75;;;3.45;;
36555;SDS011;40859;50.560;7.268;2023-04-09T21:11:45;4.32;;;1.62;;
36555;SDS011;40859;50.560;7.268;2023-04-09T21:14:11;2.35;;;1.58;;
36555;SDS011;40859;50.560;7.268;2023-04-09T21:16:38;6.00;;;2.03;;
36555;SDS011;40859;50.560;7.268;2023-04-09T21:19:04;4.30;;;2.05;;
36555;SDS011;40859;50.560;7.268;2023-04-09T21:21:33;4.65;;;1.98;;
36555;SDS011;40859;50.560;7.268;2023-04-09T21:23:59;4.07;;;2.60;;
36555;SDS011;40859;50.560;7.268;2023-04-09T21:26:25;7.03;;;2.58;;
36555;SDS011;40859;50.560;7.268;2023-04-09T21:28:51;4.30;;;2.80;;
36555;SDS011;40859;50.560;7.268;2023-04-09T21:31:17;4.12;;;2.25;;
36555;SDS011;40859;50.560;7.268;2023-04-09T21:33:42;3.62;;;2.78;;
36555;SDS011;40859;50.560;7.268;2023-04-09T21:36:08;6.40;;;2.47;;
36555;SDS011;40859;50.560;7.268;2023-04-09T21:38:35;4.30;;;2.67;;
36555;SDS011;40859;50.560;7.268;2023-04-09T21:41:01;5.65;;;3.70;;
36555;SDS011;40859;50.560;7.268;2023-04-09T21:43:26;6.93;;;3.03;;
36555;SDS011;40859;50.560;7.268;2023-04-09T21:45:54;7.07;;;2.83;;
36555;SDS011;40859;50.560;7.268;2023-04-09T21:48:20;5.40;;;2.90;;
36555;SDS011;40859;50.560;7.268;2023-04-09T21:50:46;3.72;;;2.55;;
36555;SDS011;40859;50.560;7.268;2023-04-09T21:53:12;4.37;;;2.55;;
36555;SDS011;40859;50.560;7.268;2023-04-09T21:55:39;6.50;;;3.12;;
36555;SDS011;40859;50.560;7.268;2023-04-09T21:58:05;7.22;;;2.70;;
36555;SDS011;40859;50.560;7.268;2023-04-09T22:00:33;4.25;;;2.80;;
36555;SDS011;40859;50.560;7.268;2023-04-09T22:03:00;3.72;;;2.87;;
36555;SDS011;40859;50.560;7.268;2023-04-09T22:05:26;3.72;;;2.50;;
36555;SDS011;40859;50.560;7.268;2023-04-09T22:07:53;4.80;;;2.95;;
36555;SDS011;40859;50.560;7.268;2023-04-09T22:10:20;5.60;;;3.22;;
36555;SDS011;40859;50.560;7.268;2023-04-09T22:12:46;4.03;;;2.72;;
36555;SDS011;40859;50.560;7.268;2023-04-09T22:15:12;4.25;;;3.03;;
36555;SDS011;40859;50.560;7.268;2023-04-09T22:17:39;4.22;;;2.83;;
36555;SDS011;40859;50.560;7.268;2023-04-09T22:20:05;4.53;;;2.85;;
36555;SDS011;40859;50.560;7.268;2023-04-09T22:22:33;5.47;;;3.75;;
36555;SDS011;40859;50.560;7.268;2023-04-09T22:24:59;4.53;;;3.10;;
36555;SDS011;40859;50.560;7.268;2023-04-09T22:27:25;4.78;;;3.22;;
36555;SDS011;40859;50.560;7.268;2023-04-09T22:29:52;4.68;;;3.42;;
36555;SDS011;40859;50.560;7.268;2023-04-09T22:32:17;3.30;;;2.50;;
36555;SDS011;40859;50.560;7.268;2023-04-09T22:34:44;7.62;;;3.33;;
36555;SDS011;40859;50.560;7.268;2023-04-09T22:37:10;4.30;;;2.97;;
36555;SDS011;40859;50.560;7.268;2023-04-09T22:39:36;5.10;;;2.85;;
36555;SDS011;40859;50.560;7.268;2023-04-09T22:42:02;4.95;;;2.97;;
36555;SDS011;40859;50.560;7.268;2023-04-09T22:44:29;4.65;;;2.83;;
36555;SDS011;40859;50.560;7.268;2023-04-09T22:46:55;4.57;;;3.15;;
36555;SDS011;40859;50.560;7.268;2023-04-09T22:49:21;5.22;;;3.22;;
36555;SDS011;40859;50.560;7.268;2023-04-09T22:51:48;5.85;;;3.05;;
36555;SDS011;40859;50.560;7.268;2023-04-09T22:54:14;7.93;;;3.20;;
36555;SDS011;40859;50.560;7.268;2023-04-09T22:56:40;5.25;;;3.25;;
36555;SDS011;40859;50.560;7.268;2023-04-09T22:59:05;3.67;;;2.55;;
36555;SDS011;40859;50.560;7.268;2023-04-09T23:01:31;4.70;;;3.25;;
36555;SDS011;40859;50.560;7.268;2023-04-09T23:03:58;4.82;;;2.80;;
36555;SDS011;40859;50.560;7.268;2023-04-09T23:06:24;4.72;;;3.20;;
36555;SDS011;40859;50.560;7.268;2023-04-09T23:08:50;4.15;;;2.92;;
36555;SDS011;40859;50.560;7.268;2023-04-09T23:11:16;4.15;;;2.72;;
36555;SDS011;40859;50.560;7.268;2023-04-09T23:13:42;3.50;;;2.87;;
36555;SDS011;40859;50.560;7.268;2023-04-09T23:16:08;6.93;;;3.17;;
36555;SDS011;40859;50.560;7.268;2023-04-09T23:18:35;4.75;;;3.00;;